createdAt,value
2022-08-22T00:02:09.004Z,1.80
2022-08-22T00:05:23.820Z,1.50
2022-08-22T00:07:56.417Z,1.07
2022-08-22T00:10:49.871Z,1.40
2022-08-22T00:13:25.914Z,1.40
2022-08-22T00:15:53.401Z,1.60
2022-08-22T00:18:31.798Z,1.20
2022-08-22T00:21:18.966Z,1.80
2022-08-22T00:23:53.737Z,1.20
2022-08-22T00:26:45.087Z,1.70
2022-08-22T00:29:15.701Z,1.53
2022-08-22T00:31:49.440Z,1.57
2022-08-22T00:34:17.639Z,1.70
2022-08-22T00:36:47.924Z,1.20
2022-08-22T00:39:28.459Z,1.53
2022-08-22T00:42:49.154Z,1.63
2022-08-22T00:45:18.734Z,1.60
2022-08-22T00:47:45.440Z,1.20
2022-08-22T00:50:49.467Z,1.53
2022-08-22T00:53:35.752Z,1.77
2022-08-22T00:56:26.910Z,1.03
2022-08-22T00:59:27.118Z,1.27
2022-08-22T01:02:16.739Z,1.60
2022-08-22T01:04:55.485Z,1.27
2022-08-22T01:07:37.901Z,1.10
2022-08-22T01:10:32.931Z,1.10
2022-08-22T01:13:20.633Z,1.30
2022-08-22T01:15:47.922Z,1.43
2022-08-22T01:18:27.228Z,1.10
2022-08-22T01:21:12.107Z,1.63
2022-08-22T01:24:22.191Z,1.17
2022-08-22T01:27:10.931Z,1.40
2022-08-22T01:30:07.192Z,1.40
2022-08-22T01:33:04.255Z,1.57
2022-08-22T01:35:31.015Z,2.00
2022-08-22T01:38:12.801Z,1.43
2022-08-22T01:41:06.820Z,1.40
2022-08-22T01:44:07.654Z,1.57
2022-08-22T01:47:13.259Z,1.40
2022-08-22T01:49:44.154Z,1.30
2022-08-22T01:52:34.606Z,1.20
2022-08-22T01:55:07.523Z,1.20
2022-08-22T01:57:41.850Z,1.10
2022-08-22T02:00:10.159Z,1.03
2022-08-22T02:02:48.226Z,1.00
2022-08-22T02:05:32.288Z,1.27
2022-08-22T02:08:23.978Z,1.03
2022-08-22T02:11:02.317Z,1.13
2022-08-22T02:13:47.508Z,1.40
2022-08-22T02:16:37.182Z,1.13
2022-08-22T02:19:29.581Z,1.43
2022-08-22T02:22:06.940Z,1.33
2022-08-22T02:24:33.631Z,1.53
2022-08-22T02:27:24.868Z,1.47
2022-08-22T02:30:07.398Z,2.17
2022-08-22T02:32:58.320Z,2.00
2022-08-22T02:35:35.517Z,1.57
2022-08-22T02:38:24.092Z,2.17
2022-08-22T02:41:06.144Z,1.93
2022-08-22T02:43:40.031Z,1.97
2022-08-22T02:46:41.705Z,2.00
2022-08-22T02:49:36.457Z,1.73
2022-08-22T02:52:49.396Z,1.50
2022-08-22T02:55:21.308Z,1.80
2022-08-22T02:58:01.007Z,1.53
2022-08-22T03:00:32.673Z,1.73
2022-08-22T03:03:02.552Z,1.53
2022-08-22T03:05:29.268Z,1.90
2022-08-22T03:08:03.359Z,1.90
2022-08-22T03:10:36.521Z,1.77
2022-08-22T03:13:11.330Z,1.73
2022-08-22T03:15:55.092Z,1.70
2022-08-22T03:18:32.559Z,1.80
2022-08-22T03:21:09.406Z,1.70
2022-08-22T03:23:40.717Z,1.53
2022-08-22T03:26:15.798Z,1.73
2022-08-22T03:28:59.403Z,1.70
2022-08-22T03:31:28.003Z,1.70
2022-08-22T03:34:20.009Z,1.63
2022-08-22T03:37:06.950Z,1.93
2022-08-22T03:39:51.687Z,1.87
2022-08-22T03:42:43.234Z,2.17
2022-08-22T03:45:21.980Z,1.53
2022-08-22T03:47:54.957Z,2.10
2022-08-22T03:50:24.614Z,1.67
2022-08-22T03:53:19.273Z,1.50
2022-08-22T03:56:04.993Z,1.60
2022-08-22T03:58:56.040Z,1.77
2022-08-22T04:01:34.663Z,1.40
2022-08-22T04:04:32.524Z,1.80
2022-08-22T04:07:03.377Z,1.77
2022-08-22T04:09:35.393Z,1.97
2022-08-22T04:12:29.289Z,1.87
2022-08-22T04:15:24.371Z,1.60
2022-08-22T04:18:23.002Z,1.33
2022-08-22T04:21:04.972Z,1.80
2022-08-22T04:24:01.986Z,1.43
2022-08-22T04:26:56.615Z,1.63
2022-08-22T04:29:35.604Z,1.97
2022-08-22T04:32:06.975Z,1.87
2022-08-22T04:34:57.677Z,1.80
2022-08-22T04:37:46.341Z,1.93
2022-08-22T04:40:27.596Z,1.83
2022-08-22T04:43:06.137Z,2.00
2022-08-22T04:45:54.024Z,2.13
2022-08-22T04:48:24.548Z,2.23
2022-08-22T04:50:56.902Z,1.90
2022-08-22T04:53:26.270Z,2.07
2022-08-22T04:56:07.525Z,2.10
2022-08-22T04:58:48.405Z,1.90
2022-08-22T05:01:42.734Z,2.43
2022-08-22T05:04:13.274Z,1.93
2022-08-22T05:06:44.804Z,2.43
2022-08-22T05:09:16.425Z,2.03
2022-08-22T05:11:43.299Z,1.80
2022-08-22T05:14:26.072Z,1.80
2022-08-22T05:16:53.459Z,1.67
2022-08-22T05:19:29.648Z,1.80
2022-08-22T05:21:58.648Z,2.50
2022-08-22T05:24:30.131Z,2.03
2022-08-22T05:26:57.343Z,1.80
2022-08-22T05:29:28.861Z,2.03
2022-08-22T05:32:03.976Z,1.70
2022-08-22T05:34:41.884Z,2.00
2022-08-22T05:37:12.217Z,2.10
2022-08-22T05:39:39.759Z,2.20
2022-08-22T05:42:07.118Z,1.70
2022-08-22T05:44:36.639Z,2.40
2022-08-22T05:47:12.781Z,1.90
2022-08-22T05:50:01.026Z,2.17
2022-08-22T05:52:37.524Z,1.63
2022-08-22T05:55:37.754Z,1.60
2022-08-22T05:58:38.673Z,2.00
2022-08-22T06:01:11.579Z,1.83
2022-08-22T06:03:46.554Z,1.57
2022-08-22T06:06:17.149Z,2.13
2022-08-22T06:09:08.698Z,2.33
2022-08-22T06:11:40.587Z,2.40
2022-08-22T06:14:28.368Z,2.00
2022-08-22T06:17:06.409Z,2.10
2022-08-22T06:19:34.491Z,1.70
2022-08-22T06:22:01.854Z,2.17
2022-08-22T06:24:28.606Z,1.43
2022-08-22T06:26:58.708Z,1.80
2022-08-22T06:29:48.916Z,1.90
2022-08-22T06:32:44.432Z,2.13
2022-08-22T06:35:22.784Z,1.77
2022-08-22T06:37:49.594Z,2.00
2022-08-22T06:40:16.939Z,1.97
2022-08-22T06:42:49.334Z,1.80
2022-08-22T06:45:27.617Z,1.97
2022-08-22T06:48:11.885Z,2.20
2022-08-22T06:50:40.456Z,2.20
2022-08-22T06:53:11.069Z,2.13
2022-08-22T06:55:40.265Z,1.97
2022-08-22T06:58:15.735Z,1.90
2022-08-22T07:00:42.782Z,2.53
2022-08-22T07:03:15.246Z,2.10
2022-08-22T07:05:42.047Z,2.07
2022-08-22T07:08:16.261Z,2.00
2022-08-22T07:10:44.990Z,1.87
2022-08-22T07:13:19.259Z,1.90
2022-08-22T07:15:53.604Z,2.30
2022-08-22T07:18:24.967Z,1.67
2022-08-22T07:20:55.212Z,1.60
2022-08-22T07:23:35.423Z,1.67
2022-08-22T07:26:48.828Z,1.80
2022-08-22T07:29:30.019Z,1.90
2022-08-22T07:32:04.105Z,2.00
2022-08-22T07:34:56.890Z,2.20
2022-08-22T07:37:46.654Z,1.83
2022-08-22T07:40:54.200Z,1.63
2022-08-22T07:43:23.636Z,2.50
2022-08-22T07:45:55.332Z,1.90
2022-08-22T07:48:30.328Z,1.87
2022-08-22T07:51:12.420Z,1.63
2022-08-22T07:53:43.462Z,1.90
2022-08-22T07:56:23.223Z,2.17
2022-08-22T07:58:56.163Z,1.87
2022-08-22T08:01:23.396Z,2.23
2022-08-22T08:04:02.207Z,1.60
2022-08-22T08:06:29.041Z,2.33
2022-08-22T08:08:56.060Z,1.77
2022-08-22T08:11:23.764Z,1.80
2022-08-22T08:13:59.485Z,1.47
2022-08-22T08:16:28.567Z,1.97
2022-08-22T08:18:57.020Z,1.90
2022-08-22T08:21:30.386Z,1.97
2022-08-22T08:23:57.713Z,2.50
2022-08-22T08:26:34.289Z,2.43
2022-08-22T08:29:01.102Z,2.03
2022-08-22T08:31:31.928Z,1.77
2022-08-22T08:34:08.152Z,2.37
2022-08-22T08:36:53.149Z,2.13
2022-08-22T08:39:35.888Z,1.90
2022-08-22T08:43:10.951Z,2.13
2022-08-22T08:46:11.358Z,1.43
2022-08-22T08:49:02.573Z,1.90
2022-08-22T08:51:54.506Z,1.73
2022-08-22T08:54:43.508Z,1.67
2022-08-22T08:57:29.606Z,1.90
2022-08-22T09:00:13.034Z,1.57
2022-08-22T09:02:53.864Z,1.80
2022-08-22T09:05:54.793Z,1.57
2022-08-22T09:08:55.934Z,1.50
2022-08-22T09:11:50.510Z,1.60
2022-08-22T09:14:32.592Z,1.90
2022-08-22T09:17:25.119Z,1.67
2022-08-22T09:20:20.094Z,1.40
2022-08-22T09:23:10.904Z,1.60
2022-08-22T09:25:45.240Z,1.60
2022-08-22T09:28:20.854Z,1.77
2022-08-22T09:31:16.659Z,1.37
2022-08-22T09:34:25.594Z,1.60
2022-08-22T09:37:24.297Z,1.40
2022-08-22T09:39:51.048Z,1.60
2022-08-22T09:42:35.600Z,1.53
2022-08-22T09:45:11.829Z,1.17
2022-08-22T09:47:48.093Z,1.30
2022-08-22T09:50:24.915Z,1.10
2022-08-22T09:53:07.984Z,1.53
2022-08-22T09:55:57.113Z,0.93
2022-08-22T09:58:32.833Z,1.27
2022-08-22T10:01:08.334Z,1.60
2022-08-22T10:03:50.114Z,1.30
2022-08-22T10:06:25.253Z,1.40
2022-08-22T10:09:10.546Z,1.30
2022-08-22T10:11:43.720Z,1.00
2022-08-22T10:14:33.180Z,1.40
2022-08-22T10:17:06.221Z,1.70
2022-08-22T10:19:41.285Z,1.47
2022-08-22T10:22:16.814Z,1.50
2022-08-22T10:25:18.406Z,1.50
2022-08-22T10:28:00.433Z,1.47
2022-08-22T10:30:33.064Z,1.20
2022-08-22T10:33:09.555Z,1.30
2022-08-22T10:35:50.921Z,1.03
2022-08-22T10:38:25.091Z,0.90
2022-08-22T10:41:14.354Z,0.93
2022-08-22T10:44:19.543Z,1.40
2022-08-22T10:47:08.715Z,1.00
2022-08-22T10:49:43.445Z,0.93
2022-08-22T10:52:16.290Z,1.10
2022-08-22T10:55:09.703Z,1.00
2022-08-22T10:57:54.624Z,1.00
2022-08-22T11:00:46.390Z,1.10
2022-08-22T11:03:49.501Z,0.90
2022-08-22T11:06:42.385Z,0.90
2022-08-22T11:09:26.328Z,1.30
2022-08-22T11:12:43.138Z,1.27
2022-08-22T11:15:28.413Z,1.10
2022-08-22T11:18:20.467Z,1.37
2022-08-22T11:21:03.900Z,1.17
2022-08-22T11:23:42.581Z,1.00
2022-08-22T11:26:38.359Z,0.80
2022-08-22T11:29:31.554Z,1.07
2022-08-22T11:32:10.220Z,1.13
2022-08-22T11:34:45.845Z,1.00
2022-08-22T11:37:42.604Z,1.30
2022-08-22T11:40:16.205Z,1.30
2022-08-22T11:42:55.749Z,1.30
2022-08-22T11:45:28.289Z,0.73
2022-08-22T11:48:12.257Z,1.20
2022-08-22T11:50:48.761Z,0.70
2022-08-22T11:53:26.521Z,0.90
2022-08-22T11:56:12.388Z,1.20
2022-08-22T11:58:50.814Z,0.90
2022-08-22T12:01:38.504Z,1.00
2022-08-22T12:04:30.235Z,1.40
2022-08-22T12:06:56.907Z,1.10
2022-08-22T12:09:51.500Z,0.83
2022-08-22T12:12:43.116Z,0.90
2022-08-22T12:15:18.844Z,0.73
2022-08-22T12:18:19.894Z,0.90
2022-08-22T12:21:09.604Z,0.90
2022-08-22T12:23:54.535Z,0.90
2022-08-22T12:26:40.633Z,0.90
2022-08-22T12:29:20.096Z,0.80
2022-08-22T12:32:28.334Z,0.80
2022-08-22T12:35:18.633Z,0.70
2022-08-22T12:37:58.144Z,1.00
2022-08-22T12:40:52.413Z,0.60
2022-08-22T12:43:49.550Z,0.70
2022-08-22T12:46:47.582Z,0.90
2022-08-22T12:49:38.608Z,0.83
2022-08-22T12:52:26.412Z,1.00
2022-08-22T12:55:11.764Z,0.63
2022-08-22T12:58:01.283Z,0.80
2022-08-22T13:00:43.904Z,0.70
2022-08-22T13:03:28.451Z,1.00
2022-08-22T13:05:56.979Z,0.77
2022-08-22T13:08:33.418Z,0.57
2022-08-22T13:11:10.082Z,0.87
2022-08-22T13:13:58.007Z,0.90
2022-08-22T13:16:26.148Z,1.00
2022-08-22T13:19:00.299Z,0.77
2022-08-22T13:21:36.667Z,0.83
2022-08-22T13:24:16.922Z,1.00
2022-08-22T13:26:55.640Z,0.83
2022-08-22T13:29:27.510Z,1.30
2022-08-22T13:32:06.476Z,0.80
2022-08-22T13:34:43.745Z,1.03
2022-08-22T13:37:25.897Z,1.17
2022-08-22T13:39:54.983Z,1.30
2022-08-22T13:42:27.636Z,1.40
2022-08-22T13:44:57.432Z,0.80
2022-08-22T13:47:25.699Z,1.33
2022-08-22T13:49:54.414Z,1.37
2022-08-22T13:52:38.199Z,1.67
2022-08-22T13:55:13.686Z,1.43
2022-08-22T13:57:51.956Z,0.80
2022-08-22T14:00:28.527Z,1.27
2022-08-22T14:03:05.324Z,0.90
2022-08-22T14:05:34.155Z,1.10
2022-08-22T14:08:21.122Z,1.47
2022-08-22T14:10:55.230Z,1.03
2022-08-22T14:13:38.532Z,1.00
2022-08-22T14:16:30.552Z,1.00
2022-08-22T14:19:10.510Z,0.97
2022-08-22T14:21:47.305Z,1.40
2022-08-22T14:24:45.830Z,1.13
2022-08-22T14:27:14.675Z,1.00
2022-08-22T14:29:50.816Z,0.80
2022-08-22T14:32:26.685Z,0.90
2022-08-22T14:35:17.016Z,1.20
2022-08-22T14:37:52.629Z,0.87
2022-08-22T14:40:24.583Z,0.80
2022-08-22T14:43:04.345Z,1.10
2022-08-22T14:45:36.933Z,1.10
2022-08-22T14:48:31.479Z,0.97
2022-08-22T14:51:03.825Z,0.83
2022-08-22T14:53:32.923Z,1.00
2022-08-22T14:56:11.369Z,0.90
2022-08-22T14:58:57.063Z,0.70
2022-08-22T15:01:26.473Z,1.00
2022-08-22T15:04:01.312Z,0.50
2022-08-22T15:06:48.240Z,0.70
2022-08-22T15:09:36.767Z,0.90
2022-08-22T15:12:20.817Z,0.60
2022-08-22T15:14:52.109Z,0.70
2022-08-22T15:17:44.091Z,0.70
2022-08-22T15:20:36.209Z,0.60
2022-08-22T15:23:10.153Z,1.00
2022-08-22T15:25:40.866Z,0.57
2022-08-22T15:28:14.084Z,0.43
2022-08-22T15:30:45.076Z,0.83
2022-08-22T15:33:26.918Z,0.50
2022-08-22T15:36:16.813Z,0.50
2022-08-22T15:38:48.310Z,0.60
2022-08-22T15:41:36.900Z,0.50
2022-08-22T15:44:04.008Z,0.40
2022-08-22T15:46:32.248Z,0.40
2022-08-22T15:49:00.510Z,0.40
2022-08-22T15:51:47.427Z,0.30
2022-08-22T15:54:53.187Z,0.40
2022-08-22T15:57:24.922Z,0.60
2022-08-22T15:59:55.924Z,0.60
2022-08-22T16:02:35.317Z,0.60
2022-08-22T16:05:11.530Z,0.40
2022-08-22T16:07:39.649Z,0.50
2022-08-22T16:10:13.940Z,0.30
2022-08-22T16:12:44.244Z,0.60
2022-08-22T16:15:52.836Z,0.40
2022-08-22T16:18:37.569Z,0.43
2022-08-22T16:21:08.347Z,0.40
2022-08-22T16:23:49.845Z,0.60
2022-08-22T16:26:31.821Z,0.40
2022-08-22T16:29:13.636Z,0.37
2022-08-22T16:31:44.643Z,0.30
2022-08-22T16:34:17.297Z,0.27
2022-08-22T16:37:08.674Z,0.40
2022-08-22T16:39:57.215Z,0.37
2022-08-22T16:42:26.197Z,0.40
2022-08-22T16:44:55.842Z,0.30
2022-08-22T16:47:37.527Z,0.57
2022-08-22T16:50:15.935Z,0.40
2022-08-22T16:53:02.821Z,0.40
2022-08-22T16:55:29.752Z,0.43
2022-08-22T16:58:11.831Z,0.30
2022-08-22T17:01:20.793Z,0.33
2022-08-22T17:04:00.516Z,0.20
2022-08-22T17:07:00.877Z,0.30
2022-08-22T17:09:54.463Z,0.33
2022-08-22T17:12:44.977Z,0.40
2022-08-22T17:15:14.532Z,0.37
2022-08-22T17:17:59.074Z,0.40
2022-08-22T17:20:31.779Z,0.30
2022-08-22T17:23:11.240Z,0.30
2022-08-22T17:25:53.500Z,0.30
2022-08-22T17:28:51.990Z,0.60
2022-08-22T17:31:54.484Z,0.40
2022-08-22T17:34:37.211Z,0.30
2022-08-22T17:37:07.061Z,0.37
2022-08-22T17:39:42.954Z,0.30
2022-08-22T17:42:21.098Z,0.30
2022-08-22T17:44:58.736Z,0.30
2022-08-22T17:47:32.026Z,0.40
2022-08-22T17:50:06.078Z,0.40
2022-08-22T17:53:00.897Z,0.50
2022-08-22T17:55:31.359Z,0.30
2022-08-22T17:58:07.001Z,0.60
2022-08-22T18:00:36.135Z,0.50
2022-08-22T18:03:34.757Z,0.40
2022-08-22T18:06:13.879Z,0.47
2022-08-22T18:11:46.941Z,0.50
2022-08-22T18:14:29.131Z,0.53
2022-08-22T18:16:56.403Z,0.70
2022-08-22T18:19:54.113Z,0.67
2022-08-22T18:22:33.461Z,0.40
2022-08-22T18:25:29.420Z,0.50
2022-08-22T18:28:01.297Z,0.60
2022-08-22T18:30:36.813Z,0.50
2022-08-22T18:33:18.804Z,0.60
2022-08-22T18:35:53.941Z,0.50
2022-08-22T18:38:40.040Z,0.40
2022-08-22T18:41:19.969Z,0.60
2022-08-22T18:43:48.228Z,0.30
2022-08-22T18:46:48.074Z,0.60
2022-08-22T18:49:19.559Z,0.70
2022-08-22T18:52:10.782Z,0.47
2022-08-22T18:55:02.505Z,0.30
2022-08-22T18:57:53.290Z,0.50
2022-08-22T19:00:21.051Z,0.47
2022-08-22T19:03:12.851Z,0.30
2022-08-22T19:06:00.808Z,0.40
2022-08-22T19:08:53.098Z,0.40
2022-08-22T19:11:54.025Z,0.70
2022-08-22T19:14:33.517Z,0.60
2022-08-22T19:17:16.350Z,0.70
2022-08-22T19:20:06.495Z,0.40
2022-08-22T19:22:36.667Z,0.33
2022-08-22T19:25:26.455Z,0.60
2022-08-22T19:28:11.603Z,0.50
2022-08-22T19:30:51.780Z,0.70
2022-08-22T19:33:34.218Z,0.60
2022-08-22T19:36:08.935Z,0.70
2022-08-22T19:39:02.609Z,0.50
2022-08-22T19:41:45.881Z,0.67
2022-08-22T19:44:19.055Z,0.47
2022-08-22T19:46:59.568Z,0.70
2022-08-22T19:49:28.526Z,0.63
2022-08-22T19:52:23.180Z,0.60
2022-08-22T19:55:12.485Z,0.70
2022-08-22T19:57:41.946Z,0.87
2022-08-22T20:00:12.345Z,0.60
2022-08-22T20:02:54.626Z,0.80
2022-08-22T20:05:27.615Z,0.70
2022-08-22T20:07:59.731Z,0.30
2022-08-22T20:10:54.260Z,0.60
2022-08-22T20:13:26.119Z,0.77
2022-08-22T20:16:13.629Z,0.70
2022-08-22T20:19:15.698Z,1.00
2022-08-22T20:21:43.334Z,0.60
2022-08-22T20:24:51.275Z,0.70
2022-08-22T20:27:21.912Z,0.50
2022-08-22T20:30:02.838Z,0.70
2022-08-22T20:32:30.338Z,0.60
2022-08-22T20:34:58.926Z,0.70
2022-08-22T20:38:05.723Z,0.80
2022-08-22T20:40:55.066Z,0.57
2022-08-22T20:43:34.137Z,0.53
2022-08-22T20:46:32.239Z,0.93
2022-08-22T20:49:00.468Z,0.60
2022-08-22T20:51:31.135Z,0.40
2022-08-22T20:54:00.281Z,0.63
2022-08-22T20:56:53.114Z,0.70
2022-08-22T20:59:23.417Z,0.40
2022-08-22T21:02:07.573Z,0.77
2022-08-22T21:04:42.695Z,0.50
2022-08-22T21:07:09.741Z,0.90
2022-08-22T21:09:54.891Z,0.70
2022-08-22T21:12:22.484Z,0.50
2022-08-22T21:14:49.336Z,0.80
2022-08-22T21:17:17.848Z,0.63
2022-08-22T21:19:44.606Z,1.00
2022-08-22T21:22:16.036Z,0.60
2022-08-22T21:24:42.864Z,0.80
2022-08-22T21:27:14.401Z,0.50
2022-08-22T21:29:45.400Z,0.73
2022-08-22T21:32:41.209Z,0.80
2022-08-22T21:35:18.082Z,0.70
2022-08-22T21:37:45.207Z,0.70
2022-08-22T21:40:20.549Z,0.90
2022-08-22T21:43:12.219Z,0.60
2022-08-22T21:45:38.926Z,0.90
2022-08-22T21:48:36.627Z,0.80
2022-08-22T21:51:21.593Z,0.70
2022-08-22T21:53:48.436Z,0.60
2022-08-22T21:56:28.538Z,0.77
2022-08-22T21:59:50.991Z,0.67
2022-08-22T22:02:36.367Z,0.70
2022-08-22T22:05:07.364Z,0.90
2022-08-22T22:07:39.237Z,0.90
2022-08-22T22:10:07.568Z,0.80
2022-08-22T22:12:34.436Z,0.83
2022-08-22T22:15:01.199Z,1.00
2022-08-22T22:17:28.107Z,1.10
2022-08-22T22:19:54.840Z,1.03
2022-08-22T22:22:21.864Z,0.83
2022-08-22T22:24:48.728Z,0.83
2022-08-22T22:27:17.155Z,0.90
2022-08-22T22:29:44.001Z,1.03
2022-08-22T22:32:10.790Z,0.80
2022-08-22T22:34:39.133Z,0.70
2022-08-22T22:37:08.171Z,0.80
2022-08-22T22:39:35.901Z,0.80
2022-08-22T22:42:03.185Z,0.97
2022-08-22T22:44:29.949Z,1.00
2022-08-22T22:47:02.039Z,0.83
2022-08-22T22:49:29.686Z,1.00
2022-08-22T22:51:56.415Z,1.00
2022-08-22T22:54:27.280Z,0.80
2022-08-22T22:56:54.301Z,0.93
2022-08-22T22:59:24.587Z,1.20
2022-08-22T23:02:10.843Z,1.00
2022-08-22T23:04:38.910Z,0.70
2022-08-22T23:07:06.218Z,0.83
2022-08-22T23:09:38.610Z,0.90
2022-08-22T23:12:12.047Z,1.10
2022-08-22T23:14:38.766Z,1.00
2022-08-22T23:17:05.579Z,1.33
2022-08-22T23:19:32.872Z,1.10
2022-08-22T23:21:59.853Z,1.03
2022-08-22T23:24:28.368Z,1.00
2022-08-22T23:26:55.463Z,1.30
2022-08-22T23:29:22.215Z,0.50
2022-08-22T23:31:51.215Z,0.97
2022-08-22T23:34:22.772Z,0.93
2022-08-22T23:36:50.761Z,1.30
2022-08-22T23:39:18.189Z,1.10
2022-08-22T23:41:45.669Z,1.03
2022-08-22T23:44:14.221Z,0.97
2022-08-22T23:46:41.202Z,1.13
2022-08-22T23:49:07.971Z,1.23
2022-08-22T23:51:34.854Z,0.87
2022-08-22T23:54:01.624Z,0.83
2022-08-22T23:56:35.408Z,1.17
2022-08-22T23:59:05.564Z,1.40
